sensor_id;sensor_type;location;lat;lon;timestamp;temperature;humidity
39919;DHT22;25589;51.552;13.424;2023-02-15T00:00:20;2.80;99.90
39919;DHT22;25589;51.552;13.424;2023-02-15T00:02:45;2.50;99.90
39919;DHT22;25589;51.552;13.424;2023-02-15T00:05:11;3.00;99.90
39919;DHT22;25589;51.552;13.424;2023-02-15T00:12:29;2.70;99.90
39919;DHT22;25589;51.552;13.424;2023-02-15T00:14:55;2.10;99.90
39919;DHT22;25589;51.552;13.424;2023-02-15T00:17:21;2.80;99.90
39919;DHT22;25589;51.552;13.424;2023-02-15T00:19:46;3.40;99.90
39919;DHT22;25589;51.552;13.424;2023-02-15T00:22:12;2.80;99.90
39919;DHT22;25589;51.552;13.424;2023-02-15T00:24:38;2.70;99.90
39919;DHT22;25589;51.552;13.424;2023-02-15T00:27:03;2.70;99.90
39919;DHT22;25589;51.552;13.424;2023-02-15T00:29:29;2.60;99.90
39919;DHT22;25589;51.552;13.424;2023-02-15T00:31:55;3.00;99.90
39919;DHT22;25589;51.552;13.424;2023-02-15T00:34:25;2.70;99.90
39919;DHT22;25589;51.552;13.424;2023-02-15T00:36:51;2.80;99.90
39919;DHT22;25589;51.552;13.424;2023-02-15T00:39:18;2.60;99.90
39919;DHT22;25589;51.552;13.424;2023-02-15T00:44:11;3.10;99.90
39919;DHT22;25589;51.552;13.424;2023-02-15T00:46:36;2.60;99.90
39919;DHT22;25589;51.552;13.424;2023-02-15T00:49:03;2.60;99.90
39919;DHT22;25589;51.552;13.424;2023-02-15T00:51:30;1.80;99.90
39919;DHT22;25589;51.552;13.424;2023-02-15T00:53:56;3.50;99.90
39919;DHT22;25589;51.552;13.424;2023-02-15T00:56:21;1.70;99.90
39919;DHT22;25589;51.552;13.424;2023-02-15T00:58:47;1.80;99.90
39919;DHT22;25589;51.552;13.424;2023-02-15T01:01:18;2.60;99.90
39919;DHT22;25589;51.552;13.424;2023-02-15T01:03:43;2.70;99.90
39919;DHT22;25589;51.552;13.424;2023-02-15T01:06:10;2.40;99.90
39919;DHT22;25589;51.552;13.424;2023-02-15T01:08:36;3.10;99.90
39919;DHT22;25589;51.552;13.424;2023-02-15T01:11:07;3.50;99.90
39919;DHT22;25589;51.552;13.424;2023-02-15T01:13:33;3.20;99.90
39919;DHT22;25589;51.552;13.424;2023-02-15T01:15:58;3.40;99.90
39919;DHT22;25589;51.552;13.424;2023-02-15T01:18:25;2.50;99.90
39919;DHT22;25589;51.552;13.424;2023-02-15T01:20:51;2.50;99.90
39919;DHT22;25589;51.552;13.424;2023-02-15T01:25:45;1.80;99.90
39919;DHT22;25589;51.552;13.424;2023-02-15T01:28:11;2.60;99.90
39919;DHT22;25589;51.552;13.424;2023-02-15T01:30:38;2.60;99.90
39919;DHT22;25589;51.552;13.424;2023-02-15T01:33:03;3.60;99.90
39919;DHT22;25589;51.552;13.424;2023-02-15T01:35:30;2.90;99.90
39919;DHT22;25589;51.552;13.424;2023-02-15T01:37:56;3.00;99.90
39919;DHT22;25589;51.552;13.424;2023-02-15T01:40:22;2.50;99.90
39919;DHT22;25589;51.552;13.424;2023-02-15T01:42:54;2.80;99.90
39919;DHT22;25589;51.552;13.424;2023-02-15T01:50:39;2.20;99.90
39919;DHT22;25589;51.552;13.424;2023-02-15T01:58:05;2.40;99.90
39919;DHT22;25589;51.552;13.424;2023-02-15T02:00:32;3.40;99.90
39919;DHT22;25589;51.552;13.424;2023-02-15T02:03:00;3.10;99.90
39919;DHT22;25589;51.552;13.424;2023-02-15T02:05:26;2.40;99.90
39919;DHT22;25589;51.552;13.424;2023-02-15T02:07:52;2.30;99.90
39919;DHT22;25589;51.552;13.424;2023-02-15T02:10:22;2.30;99.90
39919;DHT22;25589;51.552;13.424;2023-02-15T02:12:52;2.30;99.90
39919;DHT22;25589;51.552;13.424;2023-02-15T02:15:23;2.30;99.90
39919;DHT22;25589;51.552;13.424;2023-02-15T02:26:38;1.80;99.90
39919;DHT22;25589;51.552;13.424;2023-02-15T02:29:22;2.30;99.90
39919;DHT22;25589;51.552;13.424;2023-02-15T02:37:46;2.20;99.90
39919;DHT22;25589;51.552;13.424;2023-02-15T02:45:58;2.00;99.90
39919;DHT22;25589;51.552;13.424;2023-02-15T02:48:28;2.30;99.90
39919;DHT22;25589;51.552;13.424;2023-02-15T02:50:54;2.40;99.90
39919;DHT22;25589;51.552;13.424;2023-02-15T02:53:20;2.00;99.90
39919;DHT22;25589;51.552;13.424;2023-02-15T02:55:56;2.40;99.90
39919;DHT22;25589;51.552;13.424;2023-02-15T02:58:43;2.70;99.90
39919;DHT22;25589;51.552;13.424;2023-02-15T03:01:20;2.10;99.90
39919;DHT22;25589;51.552;13.424;2023-02-15T03:13:39;1.90;99.90
39919;DHT22;25589;51.552;13.424;2023-02-15T03:16:07;1.80;99.90
39919;DHT22;25589;51.552;13.424;2023-02-15T03:19:01;1.10;99.90
39919;DHT22;25589;51.552;13.424;2023-02-15T03:26:36;1.60;99.90
39919;DHT22;25589;51.552;13.424;2023-02-15T03:29:04;2.40;99.90
39919;DHT22;25589;51.552;13.424;2023-02-15T03:31:33;1.70;99.90
39919;DHT22;25589;51.552;13.424;2023-02-15T03:34:03;1.70;99.90
39919;DHT22;25589;51.552;13.424;2023-02-15T03:41:56;1.90;99.90
39919;DHT22;25589;51.552;13.424;2023-02-15T03:44:31;1.80;99.90
39919;DHT22;25589;51.552;13.424;2023-02-15T03:47:04;2.60;99.90
39919;DHT22;25589;51.552;13.424;2023-02-15T03:49:46;2.70;99.90
39919;DHT22;25589;51.552;13.424;2023-02-15T03:52:15;1.70;99.90
39919;DHT22;25589;51.552;13.424;2023-02-15T03:54:41;1.70;99.90
39919;DHT22;25589;51.552;13.424;2023-02-15T03:57:16;1.70;99.90
39919;DHT22;25589;51.552;13.424;2023-02-15T04:00:04;2.60;99.90
39919;DHT22;25589;51.552;13.424;2023-02-15T04:05:41;2.30;99.90
39919;DHT22;25589;51.552;13.424;2023-02-15T04:08:07;2.10;99.90
39919;DHT22;25589;51.552;13.424;2023-02-15T04:10:33;2.30;99.90
39919;DHT22;25589;51.552;13.424;2023-02-15T04:13:18;1.70;99.90
39919;DHT22;25589;51.552;13.424;2023-02-15T04:15:43;1.60;99.90
39919;DHT22;25589;51.552;13.424;2023-02-15T04:18:27;1.60;99.90
39919;DHT22;25589;51.552;13.424;2023-02-15T04:21:12;1.90;99.90
39919;DHT22;25589;51.552;13.424;2023-02-15T04:23:56;1.70;99.90
39919;DHT22;25589;51.552;13.424;2023-02-15T04:26:40;1.60;99.90
39919;DHT22;25589;51.552;13.424;2023-02-15T04:29:06;1.90;99.90
39919;DHT22;25589;51.552;13.424;2023-02-15T04:31:31;1.60;99.90
39919;DHT22;25589;51.552;13.424;2023-02-15T04:33:57;1.70;99.90
39919;DHT22;25589;51.552;13.424;2023-02-15T04:36:22;2.50;99.90
39919;DHT22;25589;51.552;13.424;2023-02-15T04:38:48;1.60;99.90
39919;DHT22;25589;51.552;13.424;2023-02-15T04:41:13;1.60;99.90
39919;DHT22;25589;51.552;13.424;2023-02-15T04:43:39;1.50;99.90
39919;DHT22;25589;51.552;13.424;2023-02-15T04:46:04;1.50;99.90
39919;DHT22;25589;51.552;13.424;2023-02-15T04:48:30;1.60;99.90
39919;DHT22;25589;51.552;13.424;2023-02-15T04:50:56;1.60;99.90
39919;DHT22;25589;51.552;13.424;2023-02-15T04:53:21;1.70;99.90
39919;DHT22;25589;51.552;13.424;2023-02-15T04:58:13;2.40;99.90
39919;DHT22;25589;51.552;13.424;2023-02-15T05:00:39;1.60;99.90
39919;DHT22;25589;51.552;13.424;2023-02-15T05:03:04;2.50;99.90
39919;DHT22;25589;51.552;13.424;2023-02-15T05:05:30;2.70;99.90
39919;DHT22;25589;51.552;13.424;2023-02-15T05:07:55;1.80;99.90
39919;DHT22;25589;51.552;13.424;2023-02-15T05:10:21;2.30;99.90
39919;DHT22;25589;51.552;13.424;2023-02-15T05:12:47;1.70;99.90
39919;DHT22;25589;51.552;13.424;2023-02-15T05:15:12;2.30;99.90
39919;DHT22;25589;51.552;13.424;2023-02-15T05:20:04;1.20;99.90
39919;DHT22;25589;51.552;13.424;2023-02-15T05:22:30;1.00;99.90
39919;DHT22;25589;51.552;13.424;2023-02-15T05:24:56;1.70;99.90
39919;DHT22;25589;51.552;13.424;2023-02-15T05:27:40;1.40;99.90
39919;DHT22;25589;51.552;13.424;2023-02-15T05:30:24;1.00;99.90
39919;DHT22;25589;51.552;13.424;2023-02-15T05:32:50;2.50;99.90
39919;DHT22;25589;51.552;13.424;2023-02-15T05:35:16;1.60;99.90
39919;DHT22;25589;51.552;13.424;2023-02-15T05:37:41;1.50;99.90
39919;DHT22;25589;51.552;13.424;2023-02-15T05:40:08;1.70;99.90
39919;DHT22;25589;51.552;13.424;2023-02-15T05:42:34;0.90;99.90
39919;DHT22;25589;51.552;13.424;2023-02-15T05:44:59;1.20;99.90
39919;DHT22;25589;51.552;13.424;2023-02-15T05:49:51;1.60;99.90
39919;DHT22;25589;51.552;13.424;2023-02-15T05:52:16;1.50;99.90
39919;DHT22;25589;51.552;13.424;2023-02-15T05:54:42;1.90;99.90
39919;DHT22;25589;51.552;13.424;2023-02-15T05:57:08;1.00;99.90
39919;DHT22;25589;51.552;13.424;2023-02-15T05:59:33;2.30;99.90
39919;DHT22;25589;51.552;13.424;2023-02-15T06:01:59;1.40;99.90
39919;DHT22;25589;51.552;13.424;2023-02-15T06:04:24;1.40;99.90
39919;DHT22;25589;51.552;13.424;2023-02-15T06:06:50;1.50;99.90
39919;DHT22;25589;51.552;13.424;2023-02-15T06:09:15;1.40;99.90
39919;DHT22;25589;51.552;13.424;2023-02-15T06:11:44;2.70;99.90
39919;DHT22;25589;51.552;13.424;2023-02-15T06:14:10;1.20;99.90
39919;DHT22;25589;51.552;13.424;2023-02-15T06:16:35;1.50;99.90
39919;DHT22;25589;51.552;13.424;2023-02-15T06:19:01;2.30;99.90
39919;DHT22;25589;51.552;13.424;2023-02-15T06:21:28;1.40;99.90
39919;DHT22;25589;51.552;13.424;2023-02-15T06:23:53;1.40;99.90
39919;DHT22;25589;51.552;13.424;2023-02-15T06:26:19;0.70;99.90
39919;DHT22;25589;51.552;13.424;2023-02-15T06:28:44;1.90;99.90
39919;DHT22;25589;51.552;13.424;2023-02-15T06:31:10;1.40;99.90
39919;DHT22;25589;51.552;13.424;2023-02-15T06:33:36;1.50;99.90
39919;DHT22;25589;51.552;13.424;2023-02-15T06:36:02;1.50;99.90
39919;DHT22;25589;51.552;13.424;2023-02-15T06:38:29;1.40;99.90
39919;DHT22;25589;51.552;13.424;2023-02-15T06:40:54;1.70;99.90
39919;DHT22;25589;51.552;13.424;2023-02-15T06:43:20;1.40;99.90
39919;DHT22;25589;51.552;13.424;2023-02-15T06:45:45;1.40;99.90
39919;DHT22;25589;51.552;13.424;2023-02-15T06:48:11;1.70;99.90
39919;DHT22;25589;51.552;13.424;2023-02-15T06:50:36;1.00;99.90
39919;DHT22;25589;51.552;13.424;2023-02-15T06:53:02;2.10;99.90
39919;DHT22;25589;51.552;13.424;2023-02-15T06:55:28;1.30;99.90
39919;DHT22;25589;51.552;13.424;2023-02-15T06:57:54;1.50;99.90
39919;DHT22;25589;51.552;13.424;2023-02-15T07:00:19;1.50;99.90
39919;DHT22;25589;51.552;13.424;2023-02-15T07:02:47;1.50;99.90
39919;DHT22;25589;51.552;13.424;2023-02-15T07:05:12;1.50;99.90
39919;DHT22;25589;51.552;13.424;2023-02-15T07:07:38;1.60;99.90
39919;DHT22;25589;51.552;13.424;2023-02-15T07:10:04;1.60;99.90
39919;DHT22;25589;51.552;13.424;2023-02-15T07:12:30;2.90;99.90
39919;DHT22;25589;51.552;13.424;2023-02-15T07:15:13;1.50;99.90
39919;DHT22;25589;51.552;13.424;2023-02-15T07:17:39;1.00;99.90
39919;DHT22;25589;51.552;13.424;2023-02-15T07:20:11;1.90;99.90
39919;DHT22;25589;51.552;13.424;2023-02-15T07:22:37;1.90;99.90
39919;DHT22;25589;51.552;13.424;2023-02-15T07:27:32;2.10;99.90
39919;DHT22;25589;51.552;13.424;2023-02-15T07:29:58;1.30;99.90
39919;DHT22;25589;51.552;13.424;2023-02-15T07:34:52;2.80;99.90
39919;DHT22;25589;51.552;13.424;2023-02-15T07:37:18;3.60;99.90
39919;DHT22;25589;51.552;13.424;2023-02-15T07:39:43;2.90;99.90
39919;DHT22;25589;51.552;13.424;2023-02-15T07:42:09;3.30;99.90
39919;DHT22;25589;51.552;13.424;2023-02-15T07:44:35;2.60;99.90
39919;DHT22;25589;51.552;13.424;2023-02-15T07:47:00;2.50;99.90
39919;DHT22;25589;51.552;13.424;2023-02-15T07:49:26;4.00;99.90
39919;DHT22;25589;51.552;13.424;2023-02-15T07:51:52;3.40;99.90
39919;DHT22;25589;51.552;13.424;2023-02-15T07:54:17;2.70;99.90
39919;DHT22;25589;51.552;13.424;2023-02-15T07:56:43;2.80;99.90
39919;DHT22;25589;51.552;13.424;2023-02-15T07:59:09;3.60;99.90
39919;DHT22;25589;51.552;13.424;2023-02-15T08:01:36;2.90;99.90
39919;DHT22;25589;51.552;13.424;2023-02-15T08:04:03;3.00;99.90
39919;DHT22;25589;51.552;13.424;2023-02-15T08:06:31;3.80;99.90
39919;DHT22;25589;51.552;13.424;2023-02-15T08:08:57;3.40;99.90
39919;DHT22;25589;51.552;13.424;2023-02-15T08:11:26;4.10;99.90
39919;DHT22;25589;51.552;13.424;2023-02-15T08:16:35;3.70;99.90
39919;DHT22;25589;51.552;13.424;2023-02-15T08:21:58;4.40;99.90
39919;DHT22;25589;51.552;13.424;2023-02-15T08:24:26;3.40;99.90
39919;DHT22;25589;51.552;13.424;2023-02-15T08:26:52;2.40;99.90
39919;DHT22;25589;51.552;13.424;2023-02-15T08:29:20;3.60;99.90
39919;DHT22;25589;51.552;13.424;2023-02-15T08:31:52;3.80;99.90
39919;DHT22;25589;51.552;13.424;2023-02-15T08:34:19;3.60;99.90
39919;DHT22;25589;51.552;13.424;2023-02-15T08:36:44;3.70;99.90
39919;DHT22;25589;51.552;13.424;2023-02-15T08:39:11;4.80;99.90
39919;DHT22;25589;51.552;13.424;2023-02-15T08:41:41;3.90;99.90
39919;DHT22;25589;51.552;13.424;2023-02-15T08:44:08;4.70;99.90
39919;DHT22;25589;51.552;13.424;2023-02-15T08:46:36;4.10;99.90
39919;DHT22;25589;51.552;13.424;2023-02-15T08:49:02;3.00;99.90
39919;DHT22;25589;51.552;13.424;2023-02-15T08:54:00;3.80;99.90
39919;DHT22;25589;51.552;13.424;2023-02-15T08:56:29;4.30;99.90
39919;DHT22;25589;51.552;13.424;2023-02-15T08:58:55;4.80;99.90
39919;DHT22;25589;51.552;13.424;2023-02-15T09:01:24;5.10;99.90
39919;DHT22;25589;51.552;13.424;2023-02-15T09:03:51;4.70;99.90
39919;DHT22;25589;51.552;13.424;2023-02-15T09:06:20;4.40;99.90
39919;DHT22;25589;51.552;13.424;2023-02-15T09:08:46;3.70;99.90
39919;DHT22;25589;51.552;13.424;2023-02-15T09:11:15;4.60;99.90
39919;DHT22;25589;51.552;13.424;2023-02-15T09:13:48;4.60;99.90
39919;DHT22;25589;51.552;13.424;2023-02-15T09:16:14;4.70;99.90
39919;DHT22;25589;51.552;13.424;2023-02-15T09:18:42;4.70;99.90
39919;DHT22;25589;51.552;13.424;2023-02-15T09:21:13;4.90;99.90
39919;DHT22;25589;51.552;13.424;2023-02-15T09:26:11;5.00;99.90
39919;DHT22;25589;51.552;13.424;2023-02-15T09:28:37;5.30;99.90
39919;DHT22;25589;51.552;13.424;2023-02-15T09:33:33;5.40;99.90
39919;DHT22;25589;51.552;13.424;2023-02-15T09:36:00;6.30;99.90
39919;DHT22;25589;51.552;13.424;2023-02-15T09:38:25;6.00;99.90
39919;DHT22;25589;51.552;13.424;2023-02-15T09:46:41;5.70;99.90
39919;DHT22;25589;51.552;13.424;2023-02-15T09:52:09;7.40;99.90
39919;DHT22;25589;51.552;13.424;2023-02-15T09:54:58;6.20;99.90
39919;DHT22;25589;51.552;13.424;2023-02-15T10:00:47;6.40;99.90
39919;DHT22;25589;51.552;13.424;2023-02-15T10:09:17;6.80;99.90
39919;DHT22;25589;51.552;13.424;2023-02-15T10:12:31;6.40;99.90
39919;DHT22;25589;51.552;13.424;2023-02-15T10:15:19;7.00;99.90
39919;DHT22;25589;51.552;13.424;2023-02-15T10:18:23;5.90;99.90
39919;DHT22;25589;51.552;13.424;2023-02-15T10:23:42;7.50;99.90
39919;DHT22;25589;51.552;13.424;2023-02-15T10:26:19;8.00;99.90
39919;DHT22;25589;51.552;13.424;2023-02-15T10:28:52;8.00;99.90
39919;DHT22;25589;51.552;13.424;2023-02-15T10:31:48;7.80;99.90
39919;DHT22;25589;51.552;13.424;2023-02-15T10:34:26;8.00;99.90
39919;DHT22;25589;51.552;13.424;2023-02-15T10:39:48;8.20;99.90
39919;DHT22;25589;51.552;13.424;2023-02-15T10:51:03;9.20;99.90
39919;DHT22;25589;51.552;13.424;2023-02-15T10:53:44;9.20;99.90
39919;DHT22;25589;51.552;13.424;2023-02-15T10:56:38;8.70;99.90
39919;DHT22;25589;51.552;13.424;2023-02-15T10:59:31;9.40;99.90
39919;DHT22;25589;51.552;13.424;2023-02-15T11:05:14;9.60;99.90
39919;DHT22;25589;51.552;13.424;2023-02-15T11:07:43;9.80;99.90
39919;DHT22;25589;51.552;13.424;2023-02-15T11:15:36;10.20;99.90
39919;DHT22;25589;51.552;13.424;2023-02-15T11:18:27;10.30;99.90
39919;DHT22;25589;51.552;13.424;2023-02-15T11:21:01;10.30;99.90
39919;DHT22;25589;51.552;13.424;2023-02-15T11:23:29;10.30;99.90
39919;DHT22;25589;51.552;13.424;2023-02-15T11:26:02;10.40;99.90
39919;DHT22;25589;51.552;13.424;2023-02-15T11:28:37;10.60;99.90
39919;DHT22;25589;51.552;13.424;2023-02-15T11:31:17;10.70;99.90
39919;DHT22;25589;51.552;13.424;2023-02-15T11:33:53;10.40;99.90
39919;DHT22;25589;51.552;13.424;2023-02-15T11:38:56;11.10;99.90
39919;DHT22;25589;51.552;13.424;2023-02-15T11:46:23;11.40;99.90
39919;DHT22;25589;51.552;13.424;2023-02-15T11:48:49;11.50;99.90
39919;DHT22;25589;51.552;13.424;2023-02-15T11:51:18;11.50;99.90
39919;DHT22;25589;51.552;13.424;2023-02-15T11:53:46;11.50;99.90
39919;DHT22;25589;51.552;13.424;2023-02-15T11:56:17;11.50;99.90
39919;DHT22;25589;51.552;13.424;2023-02-15T11:58:51;11.20;99.90
39919;DHT22;25589;51.552;13.424;2023-02-15T12:01:45;11.70;99.90
39919;DHT22;25589;51.552;13.424;2023-02-15T12:04:25;11.80;99.90
39919;DHT22;25589;51.552;13.424;2023-02-15T12:06:54;12.00;99.90
39919;DHT22;25589;51.552;13.424;2023-02-15T12:09:36;12.00;99.90
39919;DHT22;25589;51.552;13.424;2023-02-15T12:15:29;12.40;99.90
39919;DHT22;25589;51.552;13.424;2023-02-15T12:17:49;12.20;99.90
39919;DHT22;25589;51.552;13.424;2023-02-15T12:22:58;12.60;99.90
39919;DHT22;25589;51.552;13.424;2023-02-15T12:25:37;12.50;99.90
39919;DHT22;25589;51.552;13.424;2023-02-15T12:28:26;12.70;99.90
39919;DHT22;25589;51.552;13.424;2023-02-15T12:30:55;12.70;99.90
39919;DHT22;25589;51.552;13.424;2023-02-15T12:33:42;12.90;99.90
39919;DHT22;25589;51.552;13.424;2023-02-15T12:36:20;13.10;99.90
39919;DHT22;25589;51.552;13.424;2023-02-15T12:39:21;13.40;99.90
39919;DHT22;25589;51.552;13.424;2023-02-15T12:44:24;13.40;99.90
39919;DHT22;25589;51.552;13.424;2023-02-15T12:47:03;14.20;99.90
39919;DHT22;25589;51.552;13.424;2023-02-15T12:49:36;13.50;99.90
39919;DHT22;25589;51.552;13.424;2023-02-15T12:52:04;13.60;99.90
39919;DHT22;25589;51.552;13.424;2023-02-15T12:54:34;13.80;99.90
39919;DHT22;25589;51.552;13.424;2023-02-15T12:57:29;14.00;99.90
39919;DHT22;25589;51.552;13.424;2023-02-15T13:02:47;14.30;99.90
39919;DHT22;25589;51.552;13.424;2023-02-15T13:07:58;14.30;99.60
39919;DHT22;25589;51.552;13.424;2023-02-15T13:13:24;14.40;98.10
39919;DHT22;25589;51.552;13.424;2023-02-15T13:16:02;14.50;97.80
39919;DHT22;25589;51.552;13.424;2023-02-15T13:18:36;14.60;96.80
39919;DHT22;25589;51.552;13.424;2023-02-15T13:24:00;14.60;96.10
39919;DHT22;25589;51.552;13.424;2023-02-15T13:26:29;14.50;96.10
39919;DHT22;25589;51.552;13.424;2023-02-15T13:29:05;14.80;96.00
39919;DHT22;25589;51.552;13.424;2023-02-15T13:31:34;14.80;96.40
39919;DHT22;25589;51.552;13.424;2023-02-15T13:34:07;15.00;96.00
39919;DHT22;25589;51.552;13.424;2023-02-15T13:36:51;15.10;95.20
39919;DHT22;25589;51.552;13.424;2023-02-15T13:40:13;15.10;94.30
39919;DHT22;25589;51.552;13.424;2023-02-15T13:47:45;15.30;93.80
39919;DHT22;25589;51.552;13.424;2023-02-15T13:53:28;15.20;93.10
39919;DHT22;25589;51.552;13.424;2023-02-15T13:58:54;15.10;93.00
39919;DHT22;25589;51.552;13.424;2023-02-15T14:01:50;15.30;92.60
39919;DHT22;25589;51.552;13.424;2023-02-15T14:07:18;15.60;92.60
39919;DHT22;25589;51.552;13.424;2023-02-15T14:10:14;17.30;93.50
39919;DHT22;25589;51.552;13.424;2023-02-15T14:18:43;16.40;92.20
39919;DHT22;25589;51.552;13.424;2023-02-15T14:21:31;16.50;91.70
39919;DHT22;25589;51.552;13.424;2023-02-15T14:26:57;16.80;91.30
39919;DHT22;25589;51.552;13.424;2023-02-15T14:32:13;17.00;90.50
39919;DHT22;25589;51.552;13.424;2023-02-15T14:34:52;17.20;89.30
39919;DHT22;25589;51.552;13.424;2023-02-15T14:37:27;17.30;89.70
39919;DHT22;25589;51.552;13.424;2023-02-15T14:40:12;17.60;88.50
39919;DHT22;25589;51.552;13.424;2023-02-15T14:48:37;18.70;85.00
39919;DHT22;25589;51.552;13.424;2023-02-15T14:51:04;19.00;82.40
39919;DHT22;25589;51.552;13.424;2023-02-15T14:58:37;19.70;78.40
39919;DHT22;25589;51.552;13.424;2023-02-15T15:01:10;20.10;75.90
39919;DHT22;25589;51.552;13.424;2023-02-15T15:03:50;20.20;74.80
39919;DHT22;25589;51.552;13.424;2023-02-15T15:06:29;20.40;73.40
39919;DHT22;25589;51.552;13.424;2023-02-15T15:09:12;20.50;72.40
39919;DHT22;25589;51.552;13.424;2023-02-15T15:11:46;20.50;70.70
39919;DHT22;25589;51.552;13.424;2023-02-15T15:16:57;20.60;70.60
39919;DHT22;25589;51.552;13.424;2023-02-15T15:22:31;20.60;70.40
39919;DHT22;25589;51.552;13.424;2023-02-15T15:36:10;20.30;69.70
39919;DHT22;25589;51.552;13.424;2023-02-15T15:38:53;20.10;69.80
39919;DHT22;25589;51.552;13.424;2023-02-15T15:41:41;20.00;70.70
39919;DHT22;25589;51.552;13.424;2023-02-15T15:50:19;19.30;71.10
39919;DHT22;25589;51.552;13.424;2023-02-15T15:52:59;19.00;72.40
39919;DHT22;25589;51.552;13.424;2023-02-15T15:55:28;18.70;72.90
39919;DHT22;25589;51.552;13.424;2023-02-15T15:58:01;18.40;74.70
39919;DHT22;25589;51.552;13.424;2023-02-15T16:03:28;17.40;78.90
39919;DHT22;25589;51.552;13.424;2023-02-15T16:05:54;17.00;79.90
39919;DHT22;25589;51.552;13.424;2023-02-15T16:08:33;16.60;81.20
39919;DHT22;25589;51.552;13.424;2023-02-15T16:11:00;16.20;82.30
39919;DHT22;25589;51.552;13.424;2023-02-15T16:13:27;15.70;83.30
39919;DHT22;25589;51.552;13.424;2023-02-15T16:15:54;15.40;84.50
39919;DHT22;25589;51.552;13.424;2023-02-15T16:18:26;15.10;85.80
39919;DHT22;25589;51.552;13.424;2023-02-15T16:20:55;14.70;86.50
39919;DHT22;25589;51.552;13.424;2023-02-15T16:23:48;14.40;88.60
39919;DHT22;25589;51.552;13.424;2023-02-15T16:26:40;13.80;89.80
39919;DHT22;25589;51.552;13.424;2023-02-15T16:29:15;13.40;91.60
39919;DHT22;25589;51.552;13.424;2023-02-15T16:31:41;13.30;92.10
39919;DHT22;25589;51.552;13.424;2023-02-15T16:34:16;14.70;93.10
39919;DHT22;25589;51.552;13.424;2023-02-15T16:36:42;13.00;93.40
39919;DHT22;25589;51.552;13.424;2023-02-15T16:39:12;12.70;94.80
39919;DHT22;25589;51.552;13.424;2023-02-15T16:41:41;12.30;96.70
39919;DHT22;25589;51.552;13.424;2023-02-15T16:44:20;12.30;97.60
39919;DHT22;25589;51.552;13.424;2023-02-15T16:46:51;12.10;98.90
39919;DHT22;25589;51.552;13.424;2023-02-15T16:49:21;11.90;99.90
39919;DHT22;25589;51.552;13.424;2023-02-15T16:52:21;11.80;99.90
39919;DHT22;25589;51.552;13.424;2023-02-15T16:55:00;11.60;99.90
39919;DHT22;25589;51.552;13.424;2023-02-15T16:57:35;11.50;99.90
39919;DHT22;25589;51.552;13.424;2023-02-15T17:00:05;11.20;99.90
39919;DHT22;25589;51.552;13.424;2023-02-15T17:02:32;11.60;99.90
39919;DHT22;25589;51.552;13.424;2023-02-15T17:05:15;11.10;99.90
39919;DHT22;25589;51.552;13.424;2023-02-15T17:08:02;11.00;99.90
39919;DHT22;25589;51.552;13.424;2023-02-15T17:10:35;10.60;99.90
39919;DHT22;25589;51.552;13.424;2023-02-15T17:13:15;10.70;99.90
39919;DHT22;25589;51.552;13.424;2023-02-15T17:18:39;10.40;99.90
39919;DHT22;25589;51.552;13.424;2023-02-15T17:21:16;10.40;99.90
39919;DHT22;25589;51.552;13.424;2023-02-15T17:23:48;10.30;99.90
39919;DHT22;25589;51.552;13.424;2023-02-15T17:26:29;10.10;99.90
39919;DHT22;25589;51.552;13.424;2023-02-15T17:31:25;10.00;99.90
39919;DHT22;25589;51.552;13.424;2023-02-15T17:33:54;9.80;99.90
39919;DHT22;25589;51.552;13.424;2023-02-15T17:36:25;9.80;99.90
39919;DHT22;25589;51.552;13.424;2023-02-15T17:41:23;9.60;99.90
39919;DHT22;25589;51.552;13.424;2023-02-15T17:43:49;9.50;99.90
39919;DHT22;25589;51.552;13.424;2023-02-15T17:46:14;9.40;99.90
39919;DHT22;25589;51.552;13.424;2023-02-15T17:48:46;9.20;99.90
39919;DHT22;25589;51.552;13.424;2023-02-15T17:51:14;9.30;99.90
39919;DHT22;25589;51.552;13.424;2023-02-15T17:53:41;9.60;99.90
39919;DHT22;25589;51.552;13.424;2023-02-15T17:56:27;9.00;99.90
39919;DHT22;25589;51.552;13.424;2023-02-15T17:58:52;9.00;99.90
39919;DHT22;25589;51.552;13.424;2023-02-15T18:01:20;8.90;99.90
39919;DHT22;25589;51.552;13.424;2023-02-15T18:04:08;8.90;99.90
39919;DHT22;25589;51.552;13.424;2023-02-15T18:06:54;8.80;99.90
39919;DHT22;25589;51.552;13.424;2023-02-15T18:09:38;8.70;99.90
39919;DHT22;25589;51.552;13.424;2023-02-15T18:12:27;8.60;99.90
39919;DHT22;25589;51.552;13.424;2023-02-15T18:14:54;8.60;99.90
39919;DHT22;25589;51.552;13.424;2023-02-15T18:17:38;8.50;99.90
39919;DHT22;25589;51.552;13.424;2023-02-15T18:20:09;8.50;99.90
39919;DHT22;25589;51.552;13.424;2023-02-15T18:22:42;8.40;99.90
39919;DHT22;25589;51.552;13.424;2023-02-15T18:25:12;8.30;99.90
39919;DHT22;25589;51.552;13.424;2023-02-15T18:27:38;8.30;99.90
39919;DHT22;25589;51.552;13.424;2023-02-15T18:30:05;8.30;99.90
39919;DHT22;25589;51.552;13.424;2023-02-15T18:32:34;8.20;99.90
39919;DHT22;25589;51.552;13.424;2023-02-15T18:35:00;8.10;99.90
39919;DHT22;25589;51.552;13.424;2023-02-15T18:37:30;8.00;99.90
39919;DHT22;25589;51.552;13.424;2023-02-15T18:39:58;8.40;99.90
39919;DHT22;25589;51.552;13.424;2023-02-15T18:42:29;8.00;99.90
39919;DHT22;25589;51.552;13.424;2023-02-15T18:47:44;7.60;99.90
39919;DHT22;25589;51.552;13.424;2023-02-15T18:50:12;7.70;99.90
39919;DHT22;25589;51.552;13.424;2023-02-15T18:52:37;7.70;99.90
39919;DHT22;25589;51.552;13.424;2023-02-15T18:55:16;7.50;99.90
39919;DHT22;25589;51.552;13.424;2023-02-15T18:57:47;8.10;99.90
39919;DHT22;25589;51.552;13.424;2023-02-15T19:00:18;7.50;99.90
39919;DHT22;25589;51.552;13.424;2023-02-15T19:02:44;8.10;99.90
39919;DHT22;25589;51.552;13.424;2023-02-15T19:05:10;6.90;99.90
39919;DHT22;25589;51.552;13.424;2023-02-15T19:07:36;7.40;99.90
39919;DHT22;25589;51.552;13.424;2023-02-15T19:10:05;7.30;99.90
39919;DHT22;25589;51.552;13.424;2023-02-15T19:12:31;7.30;99.90
39919;DHT22;25589;51.552;13.424;2023-02-15T19:14:57;7.30;99.90
39919;DHT22;25589;51.552;13.424;2023-02-15T19:17:23;7.10;99.90
39919;DHT22;25589;51.552;13.424;2023-02-15T19:19:50;7.60;99.90
39919;DHT22;25589;51.552;13.424;2023-02-15T19:22:27;6.90;99.90
39919;DHT22;25589;51.552;13.424;2023-02-15T19:24:55;6.80;99.90
39919;DHT22;25589;51.552;13.424;2023-02-15T19:27:26;6.80;99.90
39919;DHT22;25589;51.552;13.424;2023-02-15T19:29:53;6.90;99.90
39919;DHT22;25589;51.552;13.424;2023-02-15T19:32:19;6.70;99.90
39919;DHT22;25589;51.552;13.424;2023-02-15T19:34:45;6.70;99.90
39919;DHT22;25589;51.552;13.424;2023-02-15T19:37:28;6.70;99.90
39919;DHT22;25589;51.552;13.424;2023-02-15T19:39:58;6.70;99.90
39919;DHT22;25589;51.552;13.424;2023-02-15T19:42:25;6.60;99.90